Time;durP1;ratioP1;P1;durP2;ratioP2;P2;SDS_P1;SDS_P2;PMS_P1;PMS_P2;Temp;Humidity;BMP_temperature;BMP_pressure;BME280_temperature;BME280_humidity;BME280_pressure;Samples;Min_cycle;Max_cycle;Signal;HPM_P1;HPM_P2
2022/03/31 00:00:05;;;;;;;14.00;10.07;;;;;;;6.58;75.78;99263.81;695994;28;1155;-77
2022/03/31 00:00:34;;;;;;;14.77;10.30;;;;;;;6.55;76.01;99261.22;699412;28;1371;-77
2022/03/31 00:00:54;;;;;;;14.40;9.80;;;;;;;6.56;75.81;99262.94;700262;28;1427;-77
2022/03/31 00:01:15;;;;;;;13.47;10.27;;;;;;;6.55;75.42;99263.81;698220;28;1284;-77
2022/03/31 00:01:35;;;;;;;13.87;10.50;;;;;;;6.57;74.98;99262.09;691658;28;4380;-77
2022/03/31 00:01:55;;;;;;;13.13;9.97;;;;;;;6.59;75.39;99268.09;692767;28;1378;-77
2022/03/31 00:02:16;;;;;;;13.15;10.20;;;;;;;6.57;75.85;99262.94;695562;28;1472;-77
2022/03/31 00:02:36;;;;;;;13.17;10.20;;;;;;;6.58;74.75;99263.81;698435;28;1519;-77
2022/03/31 00:02:58;;;;;;;13.40;9.97;;;;;;;6.58;74.75;99269.00;696696;28;1001;-77
2022/03/31 00:03:20;;;;;;;13.38;10.18;;;;;;;6.59;74.51;99263.78;694871;28;969;-77
2022/03/31 00:03:41;;;;;;;13.65;10.50;;;;;;;6.61;73.91;99258.56;691703;28;1121;-78
2022/03/31 00:04:01;;;;;;;14.15;10.52;;;;;;;6.60;75.72;99268.09;694256;28;1155;-77
2022/03/31 00:04:22;;;;;;;14.37;10.73;;;;;;;6.60;77.45;99262.03;694643;28;865;-77
2022/03/31 00:04:42;;;;;;;15.13;10.80;;;;;;;6.58;76.38;99269.00;692547;28;4292;-77
2022/03/31 00:05:03;;;;;;;12.53;10.17;;;;;;;6.56;75.06;99261.25;697210;28;1467;-77
2022/03/31 00:05:24;;;;;;;13.25;9.98;;;;;;;6.58;74.65;99261.22;695546;28;1116;-77
2022/03/31 00:05:45;;;;;;;11.82;9.77;;;;;;;6.59;74.78;99260.31;695318;28;892;-77
2022/03/31 00:06:06;;;;;;;12.70;9.90;;;;;;;6.58;76.13;99263.81;693237;28;1921;-77
2022/03/31 00:06:26;;;;;;;15.23;10.30;;;;;;;6.55;76.14;99263.81;693456;28;1619;-77
2022/03/31 00:06:47;;;;;;;12.30;10.37;;;;;;;6.54;77.37;99262.13;694518;28;1125;-77
2022/03/31 00:07:07;;;;;;;13.18;10.20;;;;;;;6.54;76.98;99267.31;689934;28;1168;-77
2022/03/31 00:07:27;;;;;;;13.10;10.10;;;;;;;6.54;76.60;99262.13;690765;28;4331;-77
2022/03/31 00:07:52;;;;;;;13.10;10.35;;;;;;;6.51;76.79;99273.41;690422;28;927;-77
2022/03/31 00:08:15;;;;;;;15.43;10.52;;;;;;;6.48;76.15;99258.72;691940;28;1235;-77
2022/03/31 00:08:35;;;;;;;13.13;10.13;;;;;;;6.51;76.91;99262.13;694593;28;1469;-77
2022/03/31 00:08:55;;;;;;;13.07;10.30;;;;;;;6.52;76.55;99266.47;697695;28;1591;-77
2022/03/31 00:09:16;;;;;;;13.10;10.40;;;;;;;6.54;76.46;99257.78;700644;28;1292;-78
2022/03/31 00:09:36;;;;;;;13.57;10.40;;;;;;;6.52;77.97;99263.88;699841;28;1254;-77
2022/03/31 00:09:56;;;;;;;13.18;10.40;;;;;;;6.50;77.85;99263.03;700274;28;1017;-77
2022/03/31 00:10:28;;;;;;;12.00;10.13;;;;;;;6.46;77.36;99263.03;698545;28;1314;-77
2022/03/31 00:10:53;;;;;;;13.80;10.30;;;;;;;6.44;76.99;99266.56;693337;28;5235;-77
2022/03/31 00:11:14;;;;;;;13.45;10.57;;;;;;;6.42;77.16;99265.69;697946;28;1234;-77
2022/03/31 00:11:34;;;;;;;14.32;10.70;;;;;;;6.42;76.84;99263.94;697702;28;1441;-77
2022/03/31 00:11:55;;;;;;;13.10;10.00;;;;;;;6.43;76.31;99265.69;698248;28;2357;-77
2022/03/31 00:12:18;;;;;;;13.25;9.90;;;;;;;6.47;76.50;99266.53;700909;28;1518;-77
2022/03/31 00:12:38;;;;;;;12.52;10.43;;;;;;;6.48;76.55;99269.09;699916;28;1338;-77
2022/03/31 00:13:01;;;;;;;14.70;10.68;;;;;;;6.50;76.78;99257.84;698662;28;1357;-77
2022/03/31 00:13:24;;;;;;;14.07;10.02;;;;;;;6.51;76.84;99263.00;700303;28;1435;-77
2022/03/31 00:13:45;;;;;;;13.80;10.07;;;;;;;6.50;78.84;99266.47;698748;28;4178;-78
2022/03/31 00:14:06;;;;;;;15.63;10.40;;;;;;;6.50;78.53;99263.88;697090;28;1507;-77
2022/03/31 00:14:27;;;;;;;15.75;10.85;;;;;;;6.49;76.55;99259.56;697390;28;1432;-77
2022/03/31 00:14:47;;;;;;;12.97;9.67;;;;;;;6.51;75.48;99259.53;696978;28;1225;-77
2022/03/31 00:15:08;;;;;;;11.00;9.65;;;;;;;6.53;75.20;99260.41;695090;28;1407;-77
2022/03/31 00:15:30;;;;;;;11.63;10.33;;;;;;;6.54;76.22;99262.13;692537;28;1164;-77
2022/03/31 00:15:53;;;;;;;13.32;10.18;;;;;;;6.55;75.99;99254.31;691112;28;1240;-77
2022/03/31 00:16:13;;;;;;;14.13;10.10;;;;;;;6.55;75.09;99259.50;693942;28;1757;-77
2022/03/31 00:16:34;;;;;;;13.10;9.97;;;;;;;6.58;74.32;99258.63;694985;28;4266;-77
2022/03/31 00:16:54;;;;;;;14.20;10.50;;;;;;;6.59;75.92;99265.50;694237;28;1434;-77
2022/03/31 00:17:15;;;;;;;15.27;10.93;;;;;;;6.54;76.96;99257.78;697844;28;1857;-77
2022/03/31 00:17:35;;;;;;;14.65;10.52;;;;;;;6.50;76.78;99255.25;694539;28;1219;-77
2022/03/31 00:17:59;;;;;;;13.05;10.48;;;;;;;6.46;76.58;99254.41;694789;28;1331;-77
2022/03/31 00:18:19;;;;;;;16.83;10.90;;;;;;;6.44;77.31;99254.44;696966;28;1688;-77
2022/03/31 00:18:40;;;;;;;15.52;10.50;;;;;;;6.42;77.78;99257.91;695530;28;1606;-77
2022/03/31 00:19:00;;;;;;;13.87;10.00;;;;;;;6.42;77.16;99255.31;695917;28;1324;-77
2022/03/31 00:19:21;;;;;;;13.35;10.25;;;;;;;6.41;76.76;99253.59;696785;28;1359;-77
2022/03/31 00:19:42;;;;;;;14.20;9.98;;;;;;;6.42;75.57;99253.56;695068;28;4288;-77
2022/03/31 00:20:03;;;;;;;12.40;10.00;;;;;;;6.45;75.97;99250.97;695320;28;1047;-77
2022/03/31 00:20:23;;;;;;;12.23;10.43;;;;;;;6.45;78.90;99250.97;695570;28;1506;-77
2022/03/31 00:20:44;;;;;;;15.43;10.87;;;;;;;6.44;79.52;99251.81;697497;28;1136;-77
2022/03/31 00:21:07;;;;;;;14.80;10.82;;;;;;;6.44;78.62;99251.81;700288;28;1505;-77
2022/03/31 00:21:28;;;;;;;12.63;10.50;;;;;;;6.46;77.67;99254.41;700321;28;1271;-77
2022/03/31 00:21:49;;;;;;;15.73;10.80;;;;;;;6.47;77.28;99249.19;698053;28;1428;-77
2022/03/31 00:22:09;;;;;;;14.77;10.70;;;;;;;6.47;79.12;99251.78;693021;28;1277;-77
2022/03/31 00:22:30;;;;;;;12.97;10.57;;;;;;;6.44;78.71;99245.78;692155;28;4297;-76
2022/03/31 00:22:50;;;;;;;13.30;10.63;;;;;;;6.45;77.60;99250.97;694037;28;1573;-77
2022/03/31 00:23:10;;;;;;;13.30;10.43;;;;;;;6.44;78.37;99251.81;695912;28;1268;-77
2022/03/31 00:23:31;;;;;;;15.95;10.85;;;;;;;6.45;78.96;99253.56;699113;28;1198;-77
2022/03/31 00:23:52;;;;;;;14.38;11.02;;;;;;;6.44;79.22;99254.44;695836;28;1294;-77
2022/03/31 00:24:12;;;;;;;14.80;11.17;;;;;;;6.44;78.77;99256.19;697909;28;1151;-77
2022/03/31 00:24:32;;;;;;;13.25;10.60;;;;;;;6.41;76.85;99251.88;697268;28;1267;-77
2022/03/31 00:24:53;;;;;;;13.93;10.70;;;;;;;6.42;76.73;99248.38;695644;28;1290;-77
2022/03/31 00:25:13;;;;;;;14.80;10.63;;;;;;;6.44;76.71;99250.97;695510;28;814;-77
2022/03/31 00:25:34;;;;;;;13.55;10.38;;;;;;;6.47;77.39;99248.34;694529;28;4418;-77
2022/03/31 00:25:54;;;;;;;15.23;10.60;;;;;;;6.45;78.83;99247.50;695228;28;1185;-77
2022/03/31 00:26:16;;;;;;;14.03;10.57;;;;;;;6.42;78.66;99244.94;693153;28;1965;-77
2022/03/31 00:26:37;;;;;;;15.85;10.48;;;;;;;6.41;78.67;99244.09;692935;28;1367;-77
2022/03/31 00:26:57;;;;;;;15.68;10.93;;;;;;;6.41;78.72;99256.19;695470;28;1479;-77
2022/03/31 00:27:18;;;;;;;14.70;11.17;;;;;;;6.39;78.82;99248.41;694990;28;1530;-76
2022/03/31 00:27:39;;;;;;;14.38;10.77;;;;;;;6.40;79.23;99251.88;694275;28;1140;-77
2022/03/31 00:28:00;;;;;;;14.82;11.00;;;;;;;6.40;79.72;99254.50;695676;28;1407;-77
2022/03/31 00:28:23;;;;;;;14.25;11.00;;;;;;;6.38;79.31;99251.88;697950;28;1874;-77
2022/03/31 00:28:44;;;;;;;13.55;10.82;;;;;;;6.38;78.37;99249.28;696532;28;4288;-77
2022/03/31 00:29:05;;;;;;;13.47;10.53;;;;;;;6.40;80.65;99252.75;697461;28;2038;-77
2022/03/31 00:29:25;;;;;;;13.88;10.90;;;;;;;6.39;79.77;99248.41;695336;28;1491;-77
2022/03/31 00:29:45;;;;;;;14.82;10.90;;;;;;;6.36;79.81;99253.66;697911;28;1392;-77
2022/03/31 00:30:09;;;;;;;17.80;11.13;;;;;;;6.35;79.43;99254.50;695017;28;1461;-77
2022/03/31 00:30:32;;;;;;;15.20;10.77;;;;;;;6.38;79.74;99251.88;692334;28;1498;-77
2022/03/31 00:30:52;;;;;;;15.00;10.77;;;;;;;6.38;79.37;99249.28;693085;28;1294;-77
2022/03/31 00:31:13;;;;;;;13.97;10.70;;;;;;;6.42;79.39;99248.38;693988;28;1008;-77
2022/03/31 00:31:33;;;;;;;12.30;10.37;;;;;;;6.45;79.18;99248.38;693904;28;4656;-78
2022/03/31 00:31:57;;;;;;;12.82;10.35;;;;;;;6.46;79.09;99254.41;693996;28;1701;-77
2022/03/31 00:32:17;;;;;;;13.65;10.60;;;;;;;6.45;79.93;99250.97;693532;28;1621;-77
2022/03/31 00:32:38;;;;;;;12.83;11.27;;;;;;;6.46;80.06;99249.22;693249;28;1355;-77
2022/03/31 00:33:00;;;;;;;13.95;11.50;;;;;;;6.44;79.47;99250.97;696322;28;1244;-77
2022/03/31 00:33:20;;;;;;;14.10;11.45;;;;;;;6.44;78.43;99246.63;698270;28;4271;-77
2022/03/31 00:33:41;;;;;;;14.30;11.33;;;;;;;6.46;77.93;99249.22;695295;28;1206;-77
2022/03/31 00:34:02;;;;;;;12.83;10.27;;;;;;;6.48;78.55;99250.91;695256;28;1755;-77
2022/03/31 00:34:22;;;;;;;13.50;10.20;;;;;;;6.48;80.70;99252.66;692304;28;1498;-77
2022/03/31 00:34:42;;;;;;;13.57;10.87;;;;;;;6.47;80.58;99248.34;688487;28;4300;-77
2022/03/31 00:35:04;;;;;;;15.50;10.98;;;;;;;6.48;79.40;99252.66;689711;28;1532;-77
2022/03/31 00:35:24;;;;;;;15.20;10.82;;;;;;;6.48;79.86;99248.31;690544;28;1204;-77
2022/03/31 00:35:45;;;;;;;14.33;10.97;;;;;;;6.47;79.94;99246.59;692189;28;1107;-77
2022/03/31 00:36:05;;;;;;;14.63;10.95;;;;;;;6.48;78.98;99244.88;692771;28;1446;-77
2022/03/31 00:36:26;;;;;;;12.90;10.40;;;;;;;6.50;79.41;99250.91;692662;28;1587;-77
2022/03/31 00:36:46;;;;;;;12.35;10.65;;;;;;;6.45;82.52;99255.28;696144;28;1325;-77
2022/03/31 00:37:07;;;;;;;14.00;11.67;;;;;;;6.42;82.60;99248.38;697725;28;1634;-77
2022/03/31 00:37:28;;;;;;;15.23;11.45;;;;;;;6.41;82.04;99246.69;694639;28;4471;-77
2022/03/31 00:37:48;;;;;;;15.10;11.02;;;;;;;6.39;81.12;99243.22;689961;28;1639;-77
2022/03/31 00:38:10;;;;;;;14.03;10.43;;;;;;;6.42;78.42;99252.72;688693;28;1260;-77
2022/03/31 00:38:31;;;;;;;13.65;10.43;;;;;;;6.43;78.10;99244.91;689698;28;1010;-77
2022/03/31 00:39:33;;;;;;;15.90;11.00;;;;;;;6.45;82.10;99250.97;697962;28;1103;-77
2022/03/31 00:39:55;;;;;;;16.92;11.70;;;;;;;6.42;82.51;99248.38;695706;28;1764;-77
2022/03/31 00:40:18;;;;;;;15.10;11.25;;;;;;;6.36;83.01;99245.84;698146;28;1379;-77
2022/03/31 00:40:39;;;;;;;16.00;11.60;;;;;;;6.32;83.87;99241.56;695909;28;4433;-77
2022/03/31 00:40:59;;;;;;;16.07;11.27;;;;;;;6.31;83.62;99245.03;697792;28;1265;-77
2022/03/31 00:41:19;;;;;;;15.03;11.27;;;;;;;6.33;82.63;99247.63;692329;28;2039;-77
2022/03/31 00:41:40;;;;;;;14.57;11.10;;;;;;;6.30;81.96;99244.19;694163;28;1614;-77
2022/03/31 00:42:05;;;;;;;15.52;11.07;;;;;;;6.29;83.74;99241.59;691990;28;1711;-77
2022/03/31 00:42:25;;;;;;;14.30;11.38;;;;;;;6.30;81.83;99241.59;695579;28;1209;-77
2022/03/31 00:42:49;;;;;;;14.17;11.23;;;;;;;6.31;81.93;99245.03;694451;28;1163;-77
2022/03/31 00:43:10;;;;;;;13.90;11.23;;;;;;;6.33;82.36;99242.41;698078;28;1407;-77
2022/03/31 00:43:30;;;;;;;14.95;11.00;;;;;;;6.33;82.90;99242.41;697662;28;4251;-77
2022/03/31 00:43:51;;;;;;;14.93;11.30;;;;;;;6.32;81.61;99243.31;694908;28;1425;-77
2022/03/31 00:44:11;;;;;;;14.00;10.82;;;;;;;6.32;79.75;99238.97;693044;28;988;-77
2022/03/31 00:44:31;;;;;;;13.07;10.60;;;;;;;6.34;79.86;99242.44;695213;28;1383;-77
2022/03/31 00:44:52;;;;;;;14.07;11.25;;;;;;;6.39;80.89;99247.56;691247;28;1163;-77
2022/03/31 00:45:21;;;;;;;14.88;10.93;;;;;;;6.35;83.61;99241.53;692392;28;1373;-77
2022/03/31 00:45:47;;;;;;;14.75;11.70;;;;;;;6.33;83.97;99245.91;693569;28;1576;-77
2022/03/31 00:46:10;;;;;;;14.65;11.27;;;;;;;6.35;81.15;99238.09;698856;28;1910;-77
2022/03/31 00:46:31;;;;;;;14.25;11.70;;;;;;;6.28;85.94;99242.47;697064;28;4346;-79
2022/03/31 00:46:55;;;;;;;13.77;11.53;;;;;;;6.22;83.00;99239.97;696019;28;1455;-77
2022/03/31 00:47:18;;;;;;;13.82;10.90;;;;;;;6.24;86.51;99236.44;704016;27;1423;-77
2022/03/31 00:47:38;;;;;;;17.13;12.55;;;;;;;6.23;85.04;99247.72;700369;28;1227;-77
2022/03/31 00:47:59;;;;;;;17.37;12.37;;;;;;;6.23;83.64;99239.94;697328;28;1235;-77
2022/03/31 00:48:20;;;;;;;13.32;10.75;;;;;;;6.27;82.59;99235.56;698016;28;1242;-77
2022/03/31 00:48:40;;;;;;;14.00;11.57;;;;;;;6.27;83.97;99241.63;695758;28;1195;-77
2022/03/31 00:49:04;;;;;;;16.23;11.80;;;;;;;6.23;84.16;99241.66;691424;28;870;-77
2022/03/31 00:49:28;;;;;;;17.20;12.38;;;;;;;6.20;84.32;99244.28;691883;28;2054;-77
2022/03/31 00:49:48;;;;;;;15.50;11.77;;;;;;;6.22;83.08;99246.00;695552;28;6180;-78
2022/03/31 00:50:11;;;;;;;14.00;11.80;;;;;;;6.21;84.52;99243.41;695220;28;1299;-77
2022/03/31 00:50:33;;;;;;;15.85;12.32;;;;;;;6.22;81.62;99233.03;696416;28;1456;-77
2022/03/31 00:50:53;;;;;;;15.30;11.63;;;;;;;6.24;84.57;99244.22;697669;28;1395;-77
2022/03/31 00:51:14;;;;;;;15.73;12.13;;;;;;;6.23;85.63;99239.06;700906;28;1222;-77
2022/03/31 00:51:35;;;;;;;15.60;12.10;;;;;;;6.23;85.49;99233.88;698497;28;1131;-77
2022/03/31 00:51:55;;;;;;;14.77;12.13;;;;;;;6.23;85.58;99241.66;698166;28;971;-77
2022/03/31 00:52:19;;;;;;;15.45;12.18;;;;;;;6.25;84.02;99234.72;697722;28;1450;-77
2022/03/31 00:52:41;;;;;;;15.52;12.20;;;;;;;6.25;86.84;99239.91;697126;28;4292;-77
2022/03/31 00:53:01;;;;;;;16.38;12.18;;;;;;;6.20;86.88;99231.31;699514;28;1501;-77
2022/03/31 00:53:21;;;;;;;17.33;12.30;;;;;;;6.18;87.22;99236.53;699126;28;1260;-77
2022/03/31 00:53:42;;;;;;;15.83;12.23;;;;;;;6.17;87.00;99241.72;696572;28;1185;-77
2022/03/31 00:54:02;;;;;;;14.90;11.85;;;;;;;6.16;86.68;99247.78;698085;28;1434;-77
2022/03/31 00:54:27;;;;;;;15.57;12.13;;;;;;;6.19;86.07;99238.25;692656;28;1223;-77
2022/03/31 00:54:48;;;;;;;16.40;12.30;;;;;;;6.17;87.07;99231.34;692608;28;1777;-77
2022/03/31 00:55:11;;;;;;;16.77;12.63;;;;;;;6.16;85.53;99234.81;692271;28;1307;-77
2022/03/31 00:55:31;;;;;;;16.58;12.00;;;;;;;6.18;86.17;99238.25;694039;28;4321;-77
2022/03/31 00:55:52;;;;;;;16.08;12.27;;;;;;;6.18;86.19;99233.94;694958;28;1739;-77
2022/03/31 00:56:14;;;;;;;15.95;12.55;;;;;;;6.20;86.93;99228.72;696587;28;1523;-77
2022/03/31 00:56:35;;;;;;;16.25;12.10;;;;;;;6.24;85.16;99233.00;693761;28;1501;-77
2022/03/31 00:56:57;;;;;;;14.77;12.47;;;;;;;6.24;86.68;99230.41;691783;28;1225;-77
2022/03/31 00:57:23;;;;;;;15.98;12.70;;;;;;;6.25;85.12;99235.56;691669;28;1591;-77
2022/03/31 00:57:45;;;;;;;17.05;13.10;;;;;;;6.26;86.39;99237.31;691457;28;1713;-77
2022/03/31 00:58:06;;;;;;;18.73;12.93;;;;;;;6.25;84.48;99239.91;694279;28;1545;-77
2022/03/31 00:58:30;;;;;;;17.13;12.73;;;;;;;6.24;88.06;99248.56;693672;28;4329;-77
2022/03/31 00:58:52;;;;;;;17.15;12.60;;;;;;;6.21;88.66;99235.63;696391;28;1568;-77
2022/03/31 00:59:13;;;;;;;18.00;12.65;;;;;;;6.20;87.58;99234.75;697835;28;1265;-77
2022/03/31 00:59:34;;;;;;;16.92;12.30;;;;;;;6.21;86.83;99235.63;696527;28;1306;-77
2022/03/31 00:59:57;;;;;;;16.35;12.00;;;;;;;6.21;87.53;99230.44;697330;28;2579;-77
2022/03/31 01:00:17;;;;;;;15.90;12.52;;;;;;;6.22;84.82;99234.78;695936;28;1573;-77
2022/03/31 01:00:38;;;;;;;15.00;12.63;;;;;;;6.23;85.93;99236.47;695578;28;1258;-77
2022/03/31 01:00:58;;;;;;;15.83;12.27;;;;;;;6.22;86.94;99224.38;694991;28;1600;-77
2022/03/31 01:01:19;;;;;;;16.75;12.85;;;;;;;6.24;85.24;99238.19;697411;28;969;-77
2022/03/31 01:01:39;;;;;;;15.63;12.30;;;;;;;6.25;85.82;99224.34;696211;28;4293;-77
2022/03/31 01:02:01;;;;;;;15.90;12.40;;;;;;;6.25;86.04;99227.78;696376;28;1179;-77
2022/03/31 01:02:25;;;;;;;15.45;12.75;;;;;;;6.26;86.56;99229.53;692663;28;1489;-77
2022/03/31 01:02:45;;;;;;;15.93;12.75;;;;;;;6.32;84.98;99228.59;694946;28;2080;-77
2022/03/31 01:03:06;;;;;;;14.13;12.03;;;;;;;6.31;88.60;99229.47;689982;28;1477;-78
2022/03/31 01:03:26;;;;;;;15.90;12.77;;;;;;;6.23;89.61;99232.16;694310;28;943;-77
2022/03/31 01:03:47;;;;;;;16.57;13.10;;;;;;;6.17;89.69;99229.59;695068;28;1068;-77
2022/03/31 01:04:07;;;;;;;15.20;12.90;;;;;;;6.18;88.08;99233.06;693355;28;1246;-77
2022/03/31 01:04:30;;;;;;;15.10;12.57;;;;;;;6.20;86.31;99233.91;694227;28;4339;-77
2022/03/31 01:04:51;;;;;;;15.98;12.50;;;;;;;6.23;85.44;99226.09;693381;28;1032;-77
2022/03/31 01:05:14;;;;;;;18.85;12.90;;;;;;;6.23;88.09;99226.09;696023;28;1167;-77
2022/03/31 01:05:39;;;;;;;18.85;13.05;;;;;;;6.20;87.33;99226.97;698981;28;1389;-77
2022/03/31 01:05:59;;;;;;;15.70;12.48;;;;;;;6.22;85.16;99227.84;697123;28;1405;-77
2022/03/31 01:06:19;;;;;;;14.57;12.80;;;;;;;6.17;90.21;99228.75;697830;28;1935;-77
2022/03/31 01:06:43;;;;;;;17.98;13.60;;;;;;;6.13;89.91;99228.78;699009;28;980;-77
2022/03/31 01:07:05;;;;;;;16.58;13.13;;;;;;;6.14;86.74;99233.09;701642;28;1043;-77
2022/03/31 01:07:26;;;;;;;15.98;12.70;;;;;;;6.17;89.31;99228.75;699795;28;1285;-77
2022/03/31 01:07:47;;;;;;;16.92;13.07;;;;;;;6.14;89.98;99227.91;699752;28;4753;-77
2022/03/31 01:08:10;;;;;;;17.90;13.15;;;;;;;6.14;90.47;99233.09;702317;28;3386;-77
2022/03/31 01:08:31;;;;;;;17.52;13.27;;;;;;;6.16;90.00;99221.84;700546;28;1170;-77
2022/03/31 01:08:52;;;;;;;15.15;12.52;;;;;;;6.15;88.71;99228.78;702194;28;1012;-77
2022/03/31 01:09:13;;;;;;;14.70;12.15;;;;;;;6.18;88.04;99222.69;696972;28;1052;-77
2022/03/31 01:09:34;;;;;;;15.48;12.32;;;;;;;6.19;86.47;99227.88;691945;28;1048;-77
2022/03/31 01:09:56;;;;;;;15.60;12.75;;;;;;;6.16;90.68;99229.63;692342;28;1174;-77
2022/03/31 01:10:17;;;;;;;17.13;13.85;;;;;;;6.15;88.72;99223.59;697211;28;1044;-77
2022/03/31 01:10:37;;;;;;;18.53;13.40;;;;;;;6.21;88.14;99230.44;699618;28;4508;-77
2022/03/31 01:10:58;;;;;;;17.90;13.03;;;;;;;6.21;86.83;99233.88;697910;28;1085;-77
2022/03/31 01:11:19;;;;;;;16.07;12.90;;;;;;;6.22;86.54;99229.56;696193;28;1313;-77
2022/03/31 01:11:39;;;;;;;16.08;12.55;;;;;;;6.17;88.00;99226.16;697729;28;1122;-77
2022/03/31 01:12:01;;;;;;;18.10;13.38;;;;;;;6.14;90.02;99229.63;696142;28;1164;-77
2022/03/31 01:12:23;;;;;;;17.58;13.50;;;;;;;6.20;88.99;99229.56;696390;28;1267;-77
2022/03/31 01:12:44;;;;;;;19.60;13.45;;;;;;;6.20;89.76;99218.34;692072;28;1407;-77
2022/03/31 01:13:06;;;;;;;19.67;13.80;;;;;;;6.09;91.66;99221.91;692921;28;1289;-77
2022/03/31 01:13:26;;;;;;;19.45;14.00;;;;;;;6.04;91.89;99226.28;695388;28;4277;-77
2022/03/31 01:13:48;;;;;;;18.53;14.20;;;;;;;6.05;89.94;99220.22;695205;28;1163;-77
2022/03/31 01:14:09;;;;;;;17.27;14.25;;;;;;;6.02;91.87;99220.22;697706;28;1340;-77
2022/03/31 01:14:30;;;;;;;19.23;14.43;;;;;;;5.97;91.90;99220.28;693748;28;1553;-78
2022/03/31 01:15:06;;;;;;;21.67;13.98;;;;;;;5.98;90.70;99221.13;696837;28;1405;-78
2022/03/31 01:15:27;;;;;;;17.20;13.65;;;;;;;6.02;91.77;99222.81;697810;28;1628;-77
2022/03/31 01:15:48;;;;;;;19.52;13.90;;;;;;;5.98;92.12;99213.34;701481;28;1532;-78
2022/03/31 01:16:08;;;;;;;18.33;14.00;;;;;;;5.97;91.35;99220.28;700050;28;1084;-78
2022/03/31 01:16:30;;;;;;;17.60;13.75;;;;;;;5.99;91.47;99220.25;698413;28;4312;-77
2022/03/31 01:16:51;;;;;;;18.65;14.23;;;;;;;5.99;92.54;99220.25;697202;28;1349;-77
2022/03/31 01:17:11;;;;;;;18.73;14.03;;;;;;;6.00;90.98;99214.22;695245;28;1351;-78
2022/03/31 01:17:35;;;;;;;19.07;13.80;;;;;;;5.96;93.44;99218.50;695108;28;1274;-78
2022/03/31 01:17:56;;;;;;;18.27;13.55;;;;;;;5.96;92.36;99217.66;694396;28;1442;-78
2022/03/31 01:18:16;;;;;;;17.53;13.40;;;;;;;5.92;93.71;99215.97;694810;28;4850;-78
2022/03/31 01:18:37;;;;;;;18.60;14.32;;;;;;;5.87;95.21;99212.56;693338;28;1187;-78
2022/03/31 01:18:57;;;;;;;19.07;14.90;;;;;;;5.86;94.17;99216.91;695118;28;1206;-78
2022/03/31 01:19:17;;;;;;;18.45;14.50;;;;;;;5.86;96.02;99216.03;692716;28;1125;-77
2022/03/31 01:19:38;;;;;;;18.83;14.93;;;;;;;5.82;95.92;99211.75;692936;28;4295;-78
2022/03/31 01:19:58;;;;;;;22.80;14.98;;;;;;;5.76;95.38;99208.34;694875;28;1200;-78
2022/03/31 01:20:20;;;;;;;20.67;14.93;;;;;;;5.72;95.91;99219.59;695652;28;1700;-78
2022/03/31 01:20:42;;;;;;;19.67;14.52;;;;;;;5.80;93.61;99212.63;694979;28;1529;-78
2022/03/31 01:21:05;;;;;;;18.40;13.50;;;;;;;5.84;92.29;99212.59;697356;28;864;-78
2022/03/31 01:21:26;;;;;;;18.88;14.10;;;;;;;5.86;92.66;99210.84;699084;28;1378;-78
2022/03/31 01:21:46;;;;;;;18.53;14.80;;;;;;;5.83;93.77;99211.75;699412;28;1344;-78
2022/03/31 01:22:06;;;;;;;20.00;14.97;;;;;;;5.82;93.09;99214.34;700152;28;1604;-78
2022/03/31 01:22:29;;;;;;;22.57;15.33;;;;;;;5.79;95.98;99212.63;701157;28;4300;-77
2022/03/31 01:22:51;;;;;;;19.40;15.07;;;;;;;5.74;96.69;99215.25;700159;28;1264;-78
2022/03/31 01:23:14;;;;;;;19.33;14.98;;;;;;;5.75;96.15;99214.38;700746;28;1420;-78
2022/03/31 01:23:36;;;;;;;19.95;14.45;;;;;;;5.75;95.45;99211.78;700064;28;1215;-78
2022/03/31 01:23:56;;;;;;;21.15;15.07;;;;;;;5.74;97.14;99215.25;701350;28;1280;-77
2022/03/31 01:24:18;;;;;;;21.20;15.33;;;;;;;5.77;97.23;99206.59;702037;28;1353;-77
2022/03/31 01:24:40;;;;;;;20.02;15.43;;;;;;;5.76;95.30;99205.75;696186;28;1413;-77
2022/03/31 01:25:03;;;;;;;19.98;15.18;;;;;;;5.75;95.17;99216.97;695147;28;1274;-77
2022/03/31 01:25:24;;;;;;;21.90;15.13;;;;;;;5.71;95.57;99204.06;691528;28;1068;-77
2022/03/31 01:25:44;;;;;;;20.33;15.18;;;;;;;5.69;95.57;99209.28;694191;28;4264;-77
2022/03/31 01:26:09;;;;;;;19.03;15.17;;;;;;;5.77;95.28;99204.88;692319;28;1270;-77
2022/03/31 01:26:30;;;;;;;17.67;14.88;;;;;;;5.75;96.16;99211.78;692187;28;922;-77
2022/03/31 01:26:50;;;;;;;20.20;15.10;;;;;;;5.74;96.88;99211.81;692709;28;1226;-77
2022/03/31 01:27:11;;;;;;;19.83;15.13;;;;;;;5.73;96.41;99217.84;689660;28;860;-77
2022/03/31 01:27:37;;;;;;;18.80;15.20;;;;;;;5.69;95.84;99208.38;692378;28;1324;-77
2022/03/31 01:27:57;;;;;;;21.35;15.27;;;;;;;5.67;96.12;99211.00;694931;28;1373;-77
2022/03/31 01:28:18;;;;;;;22.07;15.17;;;;;;;5.67;95.85;99199.78;695005;28;1143;-77
2022/03/31 01:28:43;;;;;;;22.10;15.00;;;;;;;5.69;95.94;99206.66;694341;28;4418;-77
2022/03/31 01:29:04;;;;;;;18.92;15.02;;;;;;;5.71;95.31;99207.50;692868;28;1549;-77
2022/03/31 01:29:27;;;;;;;19.08;14.80;;;;;;;5.71;96.50;99207.50;694908;28;1327;-77
2022/03/31 01:29:47;;;;;;;20.88;15.45;;;;;;;5.69;97.04;99206.66;694276;28;4109;-77
2022/03/31 01:30:09;;;;;;;21.13;15.43;;;;;;;5.71;95.29;99202.31;694138;28;1379;-77
2022/03/31 01:30:30;;;;;;;20.38;15.05;;;;;;;5.72;96.10;99203.16;692658;28;1199;-77
2022/03/31 01:30:50;;;;;;;21.45;15.45;;;;;;;5.72;95.07;99205.75;693299;28;1352;-77
2022/03/31 01:31:11;;;;;;;21.63;15.13;;;;;;;5.73;96.50;99200.59;694977;28;1412;-77
2022/03/31 01:31:31;;;;;;;21.88;15.68;;;;;;;5.74;96.55;99206.63;695787;28;4295;-77
2022/03/31 01:31:52;;;;;;;22.27;15.40;;;;;;;5.72;96.80;99205.75;697914;28;1536;-77
2022/03/31 01:32:12;;;;;;;20.57;15.40;;;;;;;5.69;96.87;99211.84;695657;28;1631;-77
2022/03/31 01:32:33;;;;;;;20.75;15.18;;;;;;;5.69;96.82;99198.91;692990;28;1178;-77
2022/03/31 01:32:55;;;;;;;20.60;15.33;;;;;;;5.70;97.09;99205.78;691407;28;1244;-77
2022/03/31 01:33:17;;;;;;;21.08;15.27;;;;;;;5.74;96.05;99201.44;689958;28;1806;-77
2022/03/31 01:33:37;;;;;;;22.15;14.65;;;;;;;5.73;95.01;99199.72;692314;28;1703;-77
2022/03/31 01:34:01;;;;;;;20.42;14.55;;;;;;;5.75;96.75;99198.81;694507;28;1303;-77
2022/03/31 01:34:21;;;;;;;22.40;15.48;;;;;;;5.76;95.79;99203.16;694829;28;1411;-77
2022/03/31 01:34:42;;;;;;;22.13;15.83;;;;;;;5.72;97.55;99204.03;693456;28;4268;-77
2022/03/31 01:35:04;;;;;;;22.55;16.58;;;;;;;5.73;97.37;99197.13;695200;28;1149;-77
2022/03/31 01:35:24;;;;;;;21.67;15.77;;;;;;;5.72;97.78;99198.88;696932;28;1531;-77
2022/03/31 01:35:45;;;;;;;22.90;15.80;;;;;;;5.68;99.63;99202.34;694256;28;1258;-77
2022/03/31 01:36:06;;;;;;;22.63;16.08;;;;;;;5.69;97.47;99198.91;694161;28;1509;-77
2022/03/31 01:36:27;;;;;;;21.48;14.98;;;;;;;5.71;96.14;99185.91;693920;28;1479;-76
2022/03/31 01:36:47;;;;;;;21.13;14.98;;;;;;;5.74;98.39;99194.50;694483;28;1139;-77
2022/03/31 01:37:07;;;;;;;21.20;15.60;;;;;;;5.75;97.91;99203.16;692126;28;1634;-77
2022/03/31 01:37:28;;;;;;;22.30;16.00;;;;;;;5.76;96.08;99200.56;694553;28;4298;-76
2022/03/31 01:37:48;;;;;;;20.80;15.10;;;;;;;5.75;98.67;99197.97;695714;28;1486;-77
2022/03/31 01:38:09;;;;;;;22.85;16.08;;;;;;;5.76;97.16;99195.38;697013;28;1313;-77
2022/03/31 01:38:29;;;;;;;20.57;15.60;;;;;;;5.75;97.18;99192.78;698530;28;1514;-76
2022/03/31 01:38:50;;;;;;;22.42;15.88;;;;;;;5.74;98.03;99191.91;695051;28;1252;-77
2022/03/31 01:39:10;;;;;;;23.05;16.50;;;;;;;5.74;97.74;99191.06;696369;28;1398;-76
2022/03/31 01:39:31;;;;;;;20.27;15.60;;;;;;;5.75;96.84;99193.63;691991;28;1401;-77
2022/03/31 01:39:51;;;;;;;19.92;15.30;;;;;;;5.77;97.49;99198.81;694837;28;1301;-77
2022/03/31 01:40:12;;;;;;;20.73;15.23;;;;;;;5.75;97.64;99193.63;694163;28;1724;-77
2022/03/31 01:40:34;;;;;;;20.65;15.15;;;;;;;5.79;97.92;99195.34;691744;28;4339;-77
2022/03/31 01:40:54;;;;;;;22.13;15.60;;;;;;;5.80;96.24;99194.47;692779;28;1241;-77
2022/03/31 01:41:14;;;;;;;21.20;15.03;;;;;;;5.80;98.59;99191.88;695229;28;1294;-77
2022/03/31 01:41:35;;;;;;;23.70;16.40;;;;;;;5.78;98.72;99198.78;696025;28;1167;-77
2022/03/31 01:41:55;;;;;;;21.10;15.90;;;;;;;5.80;98.28;99197.06;692497;28;1216;-77
2022/03/31 01:42:16;;;;;;;19.90;15.05;;;;;;;5.82;96.50;99184.06;695973;28;1180;-76